Brevik Bridge — VRHY7 — position and weather

sailwx.info

Track history (hours):
 
Tides and Currents Weather Stations Pressure Air Temp Water Temp Dewpoint Dewpoint Depression Visibility Wind Speed Wind Dir Waves Ship Positions

Brevik Bridge

Last reported at 2018-May-23 12:22 UTC. Time now 2018-May-24 12:10 UTC.
Position N 36°58' W 076°20'.

Length 268 m; draft 10.3 m.

Type: Ship (hazmat cat A). MMSI: 477866200.

Date/timePositionNaut miles runAvg speedWind from/ knotsBaromVisibWave heightAir tempDewpointWater temp
2018-May-23 12:22N 36°58' W 076°20'3 8.0
2018-May-23 12:00N 36°55' W 076°20'1 1.0
2018-May-23 11:28N 36°55' W 076°20'0 0.0
2018-May-23 10:56N 36°55' W 076°20'0 0.0
2018-May-23 10:28N 36°55' W 076°20'0 0.0
2018-May-23 09:59N 36°55' W 076°20'0 0.0
2018-May-23 09:29N 36°55' W 076°20'0 0.0
2018-May-23 08:59N 36°55' W 076°20'0 0.0
2018-May-23 08:28N 36°55' W 076°20'0 0.0
2018-May-23 07:58N 36°55' W 076°20'0 0.1
2018-May-23 07:29N 36°55' W 076°20'0 0.1
2018-May-23 06:58N 36°55' W 076°20'0 0.0
2018-May-23 06:29N 36°55' W 076°20'0 0.0
2018-May-23 05:59N 36°55' W 076°20'0 0.0
2018-May-23 05:29N 36°55' W 076°20'0 0.1
2018-May-23 04:58N 36°55' W 076°20'0 0.0
2018-May-23 04:29N 36°55' W 076°20'0 0.0
2018-May-23 03:59N 36°55' W 076°20'0 0.0
2018-May-23 03:28N 36°55' W 076°20'0 0.0
2018-May-23 02:59N 36°55' W 076°20'0 0.0
2018-May-23 02:28N 36°55' W 076°20'0 0.0
2018-May-23 01:59N 36°55' W 076°20'0 0.0
2018-May-23 01:28N 36°55' W 076°20'0 0.0
2018-May-23 00:58N 36°55' W 076°20'0 0.0
2018-May-23 00:29N 36°55' W 076°20'0 0.0
2018-May-22 23:58N 36°55' W 076°20'0 0.0
2018-May-22 23:29N 36°55' W 076°20'0 0.0
2018-May-22 22:56N 36°55' W 076°20'0 0.0
2018-May-22 22:28N 36°55' W 076°20'0 0.0
2018-May-22 21:59N 36°55' W 076°20'0 0.0
2018-May-22 21:29N 36°55' W 076°20'0 0.0
2018-May-22 20:59N 36°55' W 076°20'0 0.0
2018-May-22 20:28N 36°55' W 076°20'0 0.0
2018-May-22 19:59N 36°55' W 076°20'0 0.0
2018-May-22 19:29N 36°55' W 076°20'0 0.0
2018-May-22 18:59N 36°55' W 076°20'0 0.0
2018-May-22 18:28N 36°55' W 076°20'0 0.0
2018-May-22 17:59N 36°55' W 076°20'0 0.0
2018-May-22 17:28N 36°55' W 076°20'0 0.0
2018-May-22 16:59N 36°55' W 076°20'0 0.0
2018-May-22 16:29N 36°55' W 076°20'0 0.0
2018-May-22 15:59N 36°55' W 076°20'0 0.0
2018-May-22 15:28N 36°55' W 076°20'0 0.0
2018-May-22 14:59N 36°55' W 076°20'0 0.0
2018-May-22 14:30N 36°55' W 076°20'1 1.7
2018-May-22 14:00N 36°55' W 076°20'11 9.4
2018-May-22 12:50N 36°59' W 076°07'1113.8
2018-May-22 12:01N 36°55' W 075°54'1 9.0
2018-May-22 11:54N 36°54' W 075°53'4 8.6
2018-May-22 11:28N 36°52' W 075°49'4 7.5
2018-May-22 10:59N 36°50' W 075°46'1410.7
2018-May-22 09:43N 36°50' W 075°29'312.7
2018-May-22 09:30N 36°51' W 075°25'3911.5
2018-May-22 06:06N 37°12' W 074°44'112.9
2018-May-22 06:00N 37°13' W 074°44'712.9
2018-May-22 05:28N 37°20' W 074°41'1312.7
2018-May-22 04:26N 37°32' W 074°34'612.7
2018-May-22 04:00N 37°37' W 074°31'612.7
2018-May-22 03:30N 37°43' W 074°29'712.7
2018-May-22 02:56N 37°50' W 074°27'2012.9
2018-May-22 01:24N 38°09' W 074°18'512.9
2018-May-22 01:00N 38°13' W 074°16'712.7
2018-May-22 00:28N 38°20' W 074°13'613.0
2018-May-21 23:58N 38°25' W 074°09'7512.1
2018-May-21 17:48N 39°39' W 073°52'612.7
2018-May-21 17:21N 39°45' W 073°52'512.9
2018-May-21 16:56N 39°50' W 073°51'613.0
2018-May-21 16:29N 39°56' W 073°51'612.5
2018-May-21 16:00N 40°02' W 073°50'1012.6
2018-May-21 15:11N 40°12' W 073°50'210.0
2018-May-21 14:58N 40°14' W 073°50'8 9.8
2018-May-21 14:08N 40°22' W 073°49'4 9.3
2018-May-21 13:44N 40°26' W 073°49'3 9.6
2018-May-21 13:27N 40°28' W 073°52'510.9
2018-May-21 13:00N 40°30' W 073°57'611.6
2018-May-21 12:30N 40°35' W 074°02'510.0
2018-May-21 12:01N 40°39' W 074°06'2 5.0
2018-May-21 11:30N 40°39' W 074°09'1 2.1
2018-May-21 11:00N 40°40' W 074°08'0 0.0
2018-May-21 10:30N 40°40' W 074°08'0 0.0
2018-May-21 10:00N 40°40' W 074°08'0 0.0
2018-May-21 09:30N 40°40' W 074°08'0 0.0
2018-May-21 09:00N 40°40' W 074°08'0 0.0
2018-May-21 08:27N 40°40' W 074°08'0 0.0
2018-May-21 08:00N 40°40' W 074°08'0 0.0
2018-May-21 07:30N 40°40' W 074°08'0 0.0
2018-May-21 07:00N 40°40' W 074°08'0 0.0
2018-May-21 06:30N 40°40' W 074°08'0 0.0
2018-May-21 06:00N 40°40' W 074°08'0 0.0
2018-May-21 05:30N 40°40' W 074°08'0 0.0
2018-May-21 05:00N 40°40' W 074°08'0 0.0
2018-May-21 04:30N 40°40' W 074°08'0 0.0
2018-May-21 04:00N 40°40' W 074°08'0 0.0
2018-May-21 03:30N 40°40' W 074°08'0 0.0
2018-May-21 03:00N 40°40' W 074°08'0 0.0
2018-May-21 02:30N 40°40' W 074°08'0 0.0
2018-May-21 02:00N 40°40' W 074°08'0 0.0
2018-May-21 01:30N 40°40' W 074°08'0 0.0
2018-May-21 01:00N 40°40' W 074°08'0 0.0
2018-May-21 00:27N 40°40' W 074°08'0 0.0
2018-May-21 00:00N 40°40' W 074°08'0 0.0
2018-May-20 23:30N 40°40' W 074°08'0 0.1
2018-May-20 23:00N 40°40' W 074°08'0 0.0
2018-May-20 22:30N 40°40' W 074°08'0 0.0
2018-May-20 22:00N 40°40' W 074°08'0 0.0
2018-May-20 21:30N 40°40' W 074°08'0 0.0
2018-May-20 21:00N 40°40' W 074°08'0 0.0
2018-May-20 20:30N 40°40' W 074°08'0 0.0
2018-May-20 20:00N 40°40' W 074°08'0 0.0
2018-May-20 19:30N 40°40' W 074°08'0 0.0
2018-May-20 19:00N 40°40' W 074°08'0 0.0
2018-May-20 18:30N 40°40' W 074°08'0 0.0
2018-May-20 18:00N 40°40' W 074°08'0 0.0
2018-May-20 17:30N 40°40' W 074°08'0 0.0
2018-May-20 17:00N 40°40' W 074°08'0 0.0
2018-May-20 16:30N 40°40' W 074°08'0 0.0
2018-May-20 16:00N 40°40' W 074°08'0 0.1
2018-May-20 15:30N 40°40' W 074°08'0 0.0
2018-May-20 15:00N 40°40' W 074°08'0 0.0
2018-May-20 14:30N 40°40' W 074°08'0 0.0
2018-May-20 14:00N 40°40' W 074°08'0 0.0
2018-May-20 13:30N 40°40' W 074°08'0 0.0
2018-May-20 13:00N 40°40' W 074°08'0 0.0
2018-May-20 12:30N 40°40' W 074°08'1 1.9
2018-May-20 12:00N 40°39' W 074°09'3 5.6
2018-May-20 11:29N 40°39' W 074°05'710.3
2018-May-20 10:46N 40°32' W 074°01'  
Track history (hours):
 
Tides and Currents Weather Stations Pressure Air Temp Water Temp Dewpoint Dewpoint Depression Visibility Wind Speed Wind Dir Waves Ship Positions

Brevik Bridge

Last reported at 2018-May-23 12:22 UTC. Time now 2018-May-24 12:10 UTC.
Position N 36°58' W 076°20'.

Length 268 m; draft 10.3 m.

Type: Ship (hazmat cat A). MMSI: 477866200.

Date/timePositionNaut miles runAvg speedWind from/ knotsBaromVisibWave heightAir tempDewpointWater temp
2018-May-23 12:22N 36°58' W 076°20'3 8.0
2018-May-23 12:00N 36°55' W 076°20'1 1.0
2018-May-23 11:28N 36°55' W 076°20'0 0.0
2018-May-23 10:56N 36°55' W 076°20'0 0.0
2018-May-23 10:28N 36°55' W 076°20'0 0.0
2018-May-23 09:59N 36°55' W 076°20'0 0.0
2018-May-23 09:29N 36°55' W 076°20'0 0.0
2018-May-23 08:59N 36°55' W 076°20'0 0.0
2018-May-23 08:28N 36°55' W 076°20'0 0.0
2018-May-23 07:58N 36°55' W 076°20'0 0.1
2018-May-23 07:29N 36°55' W 076°20'0 0.1
2018-May-23 06:58N 36°55' W 076°20'0 0.0
2018-May-23 06:29N 36°55' W 076°20'0 0.0
2018-May-23 05:59N 36°55' W 076°20'0 0.0
2018-May-23 05:29N 36°55' W 076°20'0 0.1
2018-May-23 04:58N 36°55' W 076°20'0 0.0
2018-May-23 04:29N 36°55' W 076°20'0 0.0
2018-May-23 03:59N 36°55' W 076°20'0 0.0
2018-May-23 03:28N 36°55' W 076°20'0 0.0
2018-May-23 02:59N 36°55' W 076°20'0 0.0
2018-May-23 02:28N 36°55' W 076°20'0 0.0
2018-May-23 01:59N 36°55' W 076°20'0 0.0
2018-May-23 01:28N 36°55' W 076°20'0 0.0
2018-May-23 00:58N 36°55' W 076°20'0 0.0
2018-May-23 00:29N 36°55' W 076°20'0 0.0
2018-May-22 23:58N 36°55' W 076°20'0 0.0
2018-May-22 23:29N 36°55' W 076°20'0 0.0
2018-May-22 22:56N 36°55' W 076°20'0 0.0
2018-May-22 22:28N 36°55' W 076°20'0 0.0
2018-May-22 21:59N 36°55' W 076°20'0 0.0
2018-May-22 21:29N 36°55' W 076°20'0 0.0
2018-May-22 20:59N 36°55' W 076°20'0 0.0
2018-May-22 20:28N 36°55' W 076°20'0 0.0
2018-May-22 19:59N 36°55' W 076°20'0 0.0
2018-May-22 19:29N 36°55' W 076°20'0 0.0
2018-May-22 18:59N 36°55' W 076°20'0 0.0
2018-May-22 18:28N 36°55' W 076°20'0 0.0
2018-May-22 17:59N 36°55' W 076°20'0 0.0
2018-May-22 17:28N 36°55' W 076°20'0 0.0
2018-May-22 16:59N 36°55' W 076°20'0 0.0
2018-May-22 16:29N 36°55' W 076°20'0 0.0
2018-May-22 15:59N 36°55' W 076°20'0 0.0
2018-May-22 15:28N 36°55' W 076°20'0 0.0
2018-May-22 14:59N 36°55' W 076°20'0 0.0
2018-May-22 14:30N 36°55' W 076°20'1 1.7
2018-May-22 14:00N 36°55' W 076°20'11 9.4
2018-May-22 12:50N 36°59' W 076°07'1113.8
2018-May-22 12:01N 36°55' W 075°54'1 9.0
2018-May-22 11:54N 36°54' W 075°53'4 8.6
2018-May-22 11:28N 36°52' W 075°49'4 7.5
2018-May-22 10:59N 36°50' W 075°46'1410.7
2018-May-22 09:43N 36°50' W 075°29'312.7
2018-May-22 09:30N 36°51' W 075°25'3911.5
2018-May-22 06:06N 37°12' W 074°44'112.9
2018-May-22 06:00N 37°13' W 074°44'712.9
2018-May-22 05:28N 37°20' W 074°41'1312.7
2018-May-22 04:26N 37°32' W 074°34'612.7
2018-May-22 04:00N 37°37' W 074°31'612.7
2018-May-22 03:30N 37°43' W 074°29'712.7
2018-May-22 02:56N 37°50' W 074°27'2012.9
2018-May-22 01:24N 38°09' W 074°18'512.9
2018-May-22 01:00N 38°13' W 074°16'712.7
2018-May-22 00:28N 38°20' W 074°13'613.0
2018-May-21 23:58N 38°25' W 074°09'7512.1
2018-May-21 17:48N 39°39' W 073°52'612.7
2018-May-21 17:21N 39°45' W 073°52'512.9
2018-May-21 16:56N 39°50' W 073°51'613.0
2018-May-21 16:29N 39°56' W 073°51'612.5
2018-May-21 16:00N 40°02' W 073°50'1012.6
2018-May-21 15:11N 40°12' W 073°50'210.0
2018-May-21 14:58N 40°14' W 073°50'8 9.8
2018-May-21 14:08N 40°22' W 073°49'4 9.3
2018-May-21 13:44N 40°26' W 073°49'3 9.6
2018-May-21 13:27N 40°28' W 073°52'510.9
2018-May-21 13:00N 40°30' W 073°57'611.6
2018-May-21 12:30N 40°35' W 074°02'510.0
2018-May-21 12:01N 40°39' W 074°06'2 5.0
2018-May-21 11:30N 40°39' W 074°09'1 2.1
2018-May-21 11:00N 40°40' W 074°08'0 0.0
2018-May-21 10:30N 40°40' W 074°08'0 0.0
2018-May-21 10:00N 40°40' W 074°08'0 0.0
2018-May-21 09:30N 40°40' W 074°08'0 0.0
2018-May-21 09:00N 40°40' W 074°08'0 0.0
2018-May-21 08:27N 40°40' W 074°08'0 0.0
2018-May-21 08:00N 40°40' W 074°08'0 0.0
2018-May-21 07:30N 40°40' W 074°08'0 0.0
2018-May-21 07:00N 40°40' W 074°08'0 0.0
2018-May-21 06:30N 40°40' W 074°08'0 0.0
2018-May-21 06:00N 40°40' W 074°08'0 0.0
2018-May-21 05:30N 40°40' W 074°08'0 0.0
2018-May-21 05:00N 40°40' W 074°08'0 0.0
2018-May-21 04:30N 40°40' W 074°08'0 0.0
2018-May-21 04:00N 40°40' W 074°08'0 0.0
2018-May-21 03:30N 40°40' W 074°08'0 0.0
2018-May-21 03:00N 40°40' W 074°08'0 0.0
2018-May-21 02:30N 40°40' W 074°08'0 0.0
2018-May-21 02:00N 40°40' W 074°08'0 0.0
2018-May-21 01:30N 40°40' W 074°08'0 0.0
2018-May-21 01:00N 40°40' W 074°08'0 0.0
2018-May-21 00:27N 40°40' W 074°08'0 0.0
2018-May-21 00:00N 40°40' W 074°08'0 0.0
2018-May-20 23:30N 40°40' W 074°08'0 0.1
2018-May-20 23:00N 40°40' W 074°08'0 0.0
2018-May-20 22:30N 40°40' W 074°08'0 0.0
2018-May-20 22:00N 40°40' W 074°08'0 0.0
2018-May-20 21:30N 40°40' W 074°08'0 0.0
2018-May-20 21:00N 40°40' W 074°08'0 0.0
2018-May-20 20:30N 40°40' W 074°08'0 0.0
2018-May-20 20:00N 40°40' W 074°08'0 0.0
2018-May-20 19:30N 40°40' W 074°08'0 0.0
2018-May-20 19:00N 40°40' W 074°08'0 0.0
2018-May-20 18:30N 40°40' W 074°08'0 0.0
2018-May-20 18:00N 40°40' W 074°08'0 0.0
2018-May-20 17:30N 40°40' W 074°08'0 0.0
2018-May-20 17:00N 40°40' W 074°08'0 0.0
2018-May-20 16:30N 40°40' W 074°08'0 0.0
2018-May-20 16:00N 40°40' W 074°08'0 0.1
2018-May-20 15:30N 40°40' W 074°08'0 0.0
2018-May-20 15:00N 40°40' W 074°08'0 0.0
2018-May-20 14:30N 40°40' W 074°08'0 0.0
2018-May-20 14:00N 40°40' W 074°08'0 0.0
2018-May-20 13:30N 40°40' W 074°08'0 0.0
2018-May-20 13:00N 40°40' W 074°08'0 0.0
2018-May-20 12:30N 40°40' W 074°08'1 1.9
2018-May-20 12:00N 40°39' W 074°09'3 5.6
2018-May-20 11:29N 40°39' W 074°05'710.3
2018-May-20 10:46N 40°32' W 074°01'  

Dump ship's entire track history